Ingleside on the Bay, Texas
Current Conditions -  °F | °C
As of 3:15 AM on Wednesday 22 Oct 2014 (Local Time) from KTFP Reporting Station
Clear Clear  
Wind Chill: 71°   Ceiling: Unl
Heat Index: 71°   Visibility: 10mi
Dew Point: 64°   Wind: 6mph
Humidity: 80%   Direction: 60°ENE
Pressure: 29.97"   Gusts: NA
Location:  27.8594°N, 97.2055°W
Report Text: KTFP 220815Z AUTO 06005KT 10SM CLR 22/18 A2997 RMK AO2 T02160180
Loading
Personal Weather Stations






























Interactive Weather Map
Tropical Storm Tracking
New forecast layout! Learn more

10-Day Weather Forecast

Advertisements
Track Severe Weather on mobile